Date,TemperatureHighF,TemperatureAvgF,TemperatureLowF,DewpointHighF,DewpointAvgF,DewpointLowF,HumidityHigh,HumidityAvg,HumidityLow,PressureMaxIn,PressureMinIn,WindSpeedMaxMPH,WindSpeedAvgMPH,GustSpeedMaxMPH,PrecipitationSumIn
2013-1-1,24,14,6,12,7,1,87,74,54,30.30,30.10,11,2,11,0.00
2013-1-2,36,24,14,29,20,10,88,83,73,30.21,30.03,13,2,13,0.00
2013-1-3,31,24,17,27,19,13,87,81,69,30.40,30.21,22,4,22,0.00
2013-1-4,38,23,15,23,17,13,91,78,50,30.30,30.12,9,2,11,0.00
2013-1-5,32,24,16,26,19,14,93,80,64,30.20,29.97,31,4,31,0.00
2013-1-6,37,25,14,25,19,11,89,78,60,30.32,30.11,23,3,23,0.00
2013-1-7,40,32,25,30,26,23,93,77,64,30.11,29.94,14,2,16,0.01
2013-1-8,42,33,24,33,28,22,94,82,68,30.12,29.83,18,3,18,0.00
2013-1-9,51,36,25,35,30,23,92,78,51,30.42,30.11,10,1,10,0.00
2013-1-10,40,37,32,37,32,26,96,81,59,30.32,29.67,12,2,13,0.10
2013-1-11,55,42,28,47,39,19,97,89,72,29.74,29.36,23,4,23,0.01
2013-1-12,27,19,11,20,9,3,74,65,55,30.12,29.74,24,7,25,0.00
2013-1-13,22,14,8,7,5,1,80,68,46,30.32,30.11,19,4,19,0.00
2013-1-14,30,18,7,14,9,4,86,71,48,30.45,30.31,13,1,14,0.00
2013-1-15,36,24,13,20,15,8,86,69,45,30.34,30.02,16,2,17,0.00
2013-1-16,52,36,23,35,27,17,82,70,48,30.22,29.89,19,5,19,0.00
2013-1-17,34,29,22,31,26,20,95,90,79,30.45,30.22,15,1,15,0.00
2013-1-18,53,40,29,34,31,27,93,72,49,30.28,29.87,21,3,21,0.00
2013-1-19,54,38,22,34,28,12,84,67,44,30.34,29.85,29,5,30,0.00
2013-1-20,22,17,14,12,8,5,79,69,53,30.41,30.30,17,4,17,0.00
2013-1-21,15,10,4,10,-2,-7,78,58,47,30.45,30.34,22,5,22,0.00
2013-1-22,24,14,10,14,8,1,85,76,61,30.37,30.23,8,1,8,0.00
2013-1-23,29,19,10,18,11,0,82,72,60,30.50,30.14,23,6,23,0.00
2013-1-24,19,11,2,7,0,-6,71,61,51,30.54,30.16,16,4,16,0.00
2013-1-25,48,30,15,29,18,7,79,64,44,30.23,30.09,15,3,15,0.00
2013-1-26,48,31,17,28,21,10,82,66,46,30.24,30.00,18,4,18,0.00
2013-1-27,43,39,35,42,36,25,97,91,57,30.00,29.68,15,3,17,0.30
2013-1-28,46,40,33,45,39,33,97,97,97,29.87,29.53,13,1,13,0.02
2013-1-29,41,34,30,40,32,29,97,92,85,29.69,29.53,25,8,27,0.00
2013-1-30,30,23,15,29,18,8,95,80,61,29.92,29.61,29,9,29,0.00
2013-1-31,15,8,1,9,-1,-6,78,67,55,30.41,29.92,28,7,28,0.00
2013-2-1,27,14,-2,20,7,-7,80,73,68,30.41,30.04,15,4,20,0.00
2013-2-2,39,30,25,31,24,18,90,78,67,30.19,30.03,20,4,20,0.00
2013-2-3,43,34,22,30,24,16,79,70,55,30.21,29.77,25,4,25,0.00
2013-2-4,37,28,23,30,23,20,89,82,68,30.02,29.75,27,5,27,0.00
2013-2-5,50,37,26,34,28,23,92,73,41,30.06,29.82,22,4,23,0.00
2013-2-6,55,41,30,40,33,26,87,74,54,30.06,29.83,20,2,20,0.00
2013-2-7,42,34,30,36,30,24,89,82,78,30.23,29.86,25,8,25,0.00
2013-2-8,34,29,26,28,25,22,91,85,75,30.33,30.13,14,4,14,0.00
2013-2-9,49,37,29,38,32,26,92,82,65,30.16,29.67,22,8,23,0.00
2013-2-10,44,37,31,43,33,23,97,85,70,29.79,29.26,40,8,40,0.09
2013-2-11,36,30,24,25,23,20,86,73,63,30.15,29.78,27,7,28,0.00
2013-2-12,49,33,20,27,22,18,93,68,37,30.14,29.89,19,2,19,0.00
2013-2-13,54,39,25,32,27,21,87,65,38,29.90,29.71,18,3,18,0.00
2013-2-14,44,38,23,32,28,14,90,68,44,30.27,29.77,29,7,29,0.00
2013-2-15,33,24,16,24,16,10,92,73,47,30.35,30.27,19,4,22,0.00
2013-2-16,34,24,11,26,19,9,91,81,68,30.32,29.99,12,3,13,0.01
2013-2-17,56,39,24,36,28,20,86,68,47,29.99,29.55,18,4,19,0.01
2013-2-18,44,33,22,34,25,14,94,74,59,30.05,29.52,36,9,36,0.00
2013-2-19,26,17,9,15,4,-1,75,58,32,30.37,30.05,26,9,26,0.00
2013-2-20,26,16,5,9,4,-2,73,59,46,30.37,30.19,13,3,13,0.00
2013-2-21,25,22,21,21,15,9,93,77,56,30.23,29.81,22,6,22,0.00
2013-2-22,25,20,12,20,16,9,92,84,68,30.02,29.81,17,4,17,0.00
2013-2-23,40,22,6,28,17,3,90,80,61,30.00,29.81,13,2,13,0.03
2013-2-24,46,32,20,30,25,17,91,76,49,30.05,29.88,11,1,11,0.00
2013-2-25,36,30,27,28,26,24,92,84,71,30.07,29.90,17,6,17,0.00
2013-2-26,32,29,26,29,26,24,93,89,84,29.90,29.76,21,9,21,0.00
2013-2-27,38,30,24,27,23,19,88,76,59,30.07,29.87,40,10,40,0.00
2013-2-28,32,28,25,25,22,20,84,80,73,30.22,30.08,17,8,25,0.00
2013-3-1,29,26,24,21,19,16,85,76,64,30.35,30.20,23,7,23,0.00
2013-3-2,36,28,20,24,19,15,82,70,53,30.34,30.08,10,2,10,0.00
2013-3-3,40,33,25,30,26,22,87,76,63,30.09,29.70,17,4,19,0.00
2013-3-4,44,36,30,31,28,24,87,75,60,30.02,29.65,20,4,20,0.00
2013-3-5,34,28,24,27,19,16,76,69,57,30.38,30.00,34,10,34,0.00
2013-3-6,42,29,21,25,20,16,81,70,47,30.42,30.23,17,3,17,0.00
2013-3-7,51,35,23,32,25,19,85,70,45,30.27,30.09,17,5,18,0.00
2013-3-8,55,42,30,40,33,25,88,72,53,30.17,29.90,23,5,23,0.23
2013-3-9,54,46,35,51,43,34,95,90,86,29.90,29.53,30,4,30,0.46
2013-3-10,35,28,22,34,27,21,95,94,92,29.93,29.64,37,13,37,0.04
2013-3-11,35,25,21,22,19,17,93,78,53,29.99,29.87,24,6,24,0.00
2013-3-12,34,29,23,25,22,18,89,74,64,30.32,29.99,26,6,28,0.00
2013-3-13,39,29,18,24,20,14,87,70,48,30.44,30.22,12,3,12,0.00
2013-3-14,59,43,33,41,33,24,84,66,49,30.22,30.04,15,3,17,0.00
2013-3-15,63,47,35,45,38,32,93,75,50,30.05,29.70,20,3,21,0.00
2013-3-16,40,33,29,37,27,23,91,80,68,30.17,29.83,26,8,26,0.00
2013-3-17,46,34,24,34,26,19,94,72,52,30.14,29.73,18,5,19,0.04
2013-3-18,38,34,28,34,22,14,96,65,40,30.04,29.71,29,7,30,0.07
2013-3-19,52,33,21,25,18,12,71,55,27,30.32,30.03,25,5,25,0.00
2013-3-20,36,25,16,17,9,3,72,53,34,30.39,30.09,25,7,25,0.00
2013-3-21,33,27,21,20,14,12,73,59,45,30.09,29.90,13,2,13,0.00
2013-3-22,36,32,26,24,20,18,76,62,51,30.02,29.96,11,2,11,0.00
2013-3-23,37,32,29,30,26,20,93,77,56,30.10,30.00,17,5,17,0.00
2013-3-24,29,27,25,26,22,18,93,82,67,30.07,30.01,28,9,31,0.00
2013-3-25,31,27,24,24,22,19,91,81,63,30.33,30.06,28,8,28,0.00
2013-3-26,45,30,18,25,19,14,85,67,42,30.37,30.22,12,2,12,0.00
2013-3-27,54,39,25,32,26,21,86,63,39,30.26,30.16,15,3,17,0.00
2013-3-28,61,45,30,35,31,27,90,62,34,30.25,30.14,8,0,8,0.00
2013-3-29,70,53,36,41,34,31,87,55,24,30.22,30.03,15,3,15,0.00
2013-3-30,67,56,48,54,44,32,93,65,29,30.07,29.89,23,4,23,0.46
2013-3-31,57,48,32,43,33,22,93,61,27,30.14,29.94,27,7,27,0.03
2013-4-1,41,31,22,30,19,12,93,64,32,30.33,30.14,22,6,22,0.00
2013-4-2,57,39,23,27,22,18,82,54,31,30.32,30.22,9,0,10,0.00
2013-4-3,57,42,30,29,25,22,73,53,33,30.35,30.20,14,2,14,0.00
2013-4-4,65,48,32,40,32,26,82,56,38,30.22,30.03,16,2,20,0.00
2013-4-5,69,53,34,41,35,30,83,54,33,30.17,29.71,21,4,22,0.00
2013-4-6,70,60,52,47,42,39,71,53,34,29.78,29.59,24,5,26,0.00
2013-4-7,76,58,45,51,44,39,88,61,32,29.86,29.62,16,2,17,0.06
2013-4-8,70,59,47,61,54,45,95,86,69,29.72,29.60,22,2,22,0.09
2013-4-9,63,47,34,60,45,33,97,94,89,29.96,29.58,30,9,31,0.93
2013-4-10,38,35,32,37,34,31,97,97,94,29.97,29.77,22,6,22,0.47
2013-4-11,36,33,30,33,30,28,96,89,82,29.79,29.64,17,5,18,0.02
2013-4-12,41,36,32,30,29,27,88,77,63,30.01,29.71,20,6,21,0.00
2013-4-13,54,42,26,40,32,24,92,71,55,30.02,29.64,17,3,19,0.00
2013-4-14,68,54,44,53,43,33,86,69,44,29.69,29.32,25,4,27,0.09
2013-4-15,46,41,34,34,29,23,81,63,54,30.08,29.66,17,3,17,0.00
2013-4-16,52,43,36,35,30,28,76,61,42,30.23,30.06,21,6,21,0.00
2013-4-17,47,42,37,42,38,34,95,86,63,30.16,29.65,29,8,30,0.97
2013-4-18,37,34,32,35,31,28,96,91,78,29.89,29.68,31,11,31,0.39
2013-4-19,46,37,29,28,23,19,81,58,37,30.10,29.85,25,8,25,0.00
2013-4-20,48,38,26,30,23,19,85,57,35,30.26,30.09,16,2,16,0.00
2013-4-21,69,55,45,51,39,30,93,57,34,30.13,29.97,28,6,29,0.60
2013-4-22,52,45,33,50,43,29,96,93,85,30.19,29.93,30,5,30,1.34
2013-4-23,40,33,29,29,25,21,86,71,56,30.26,30.13,32,10,32,0.00
2013-4-24,59,41,26,40,27,22,85,62,27,30.20,30.02,22,4,23,0.00
2013-4-25,71,52,32,38,33,29,87,54,26,30.26,30.01,25,4,25,0.00
2013-4-26,73,59,50,51,44,37,87,60,42,30.19,30.02,19,5,20,0.00
2013-4-27,72,56,45,52,48,43,95,76,47,30.21,29.94,10,1,10,0.00
2013-4-28,83,65,47,55,50,45,93,63,33,29.96,29.68,21,3,21,0.00
2013-4-29,87,70,56,59,54,47,86,59,26,29.77,29.50,14,2,14,0.00
2013-4-30,75,70,61,58,51,44,63,52,43,29.88,29.48,22,7,22,0.05
2013-5-1,62,43,33,46,37,32,96,83,52,30.41,29.88,34,13,34,0.54
2013-5-2,49,40,32,35,31,28,97,73,48,30.53,30.38,31,9,31,0.26
2013-5-3,46,40,32,34,30,27,83,67,54,30.38,30.03,25,9,25,0.00
2013-5-4,44,39,35,41,36,32,96,90,78,30.13,29.96,27,11,27,0.04
2013-5-5,55,47,41,49,44,40,95,89,79,30.17,30.10,15,5,15,0.01
2013-5-6,71,56,48,55,49,46,93,80,53,30.15,30.02,12,2,12,0.00
2013-5-7,76,62,47,58,52,46,96,71,42,30.09,29.94,15,1,15,0.02
2013-5-8,70,63,58,59,56,52,90,78,65,29.97,29.89,13,2,13,0.01
2013-5-9,69,60,57,58,56,54,95,87,64,29.99,29.86,23,5,23,2.07
2013-5-10,70,58,50,54,48,45,90,71,42,30.10,29.98,21,6,21,0.00
2013-5-11,60,55,47,48,32,22,78,43,24,30.26,30.02,31,8,31,0.00
2013-5-12,69,54,36,32,28,23,72,40,21,30.28,30.09,12,1,12,0.00
2013-5-13,85,67,48,54,44,29,70,45,26,30.11,29.84,22,3,22,0.00
2013-5-14,101,81,58,61,54,43,88,46,14,29.84,29.63,19,4,28,0.00
2013-5-15,89,77,65,57,43,37,49,31,18,29.93,29.76,21,4,27,0.00
2013-5-16,88,75,62,65,57,45,67,54,39,29.87,29.75,16,2,16,0.00
2013-5-17,89,76,65,64,61,59,81,60,38,29.90,29.80,13,2,13,0.00
2013-5-18,88,76,62,68,63,58,87,65,46,29.89,29.69,18,3,18,0.00
2013-5-19,80,67,60,67,62,55,94,83,62,29.79,29.49,16,2,29,0.60
2013-5-20,78,67,57,59,55,50,93,69,44,29.66,29.50,23,4,23,0.00
2013-5-21,63,60,55,57,51,46,86,73,57,29.73,29.60,19,4,19,0.00
2013-5-22,60,56,52,53,49,48,90,80,68,29.97,29.72,11,4,19,0.02
2013-5-23,78,62,52,52,48,42,89,64,30,30.23,29.97,19,4,19,0.00
2013-5-24,76,64,51,54,48,44,76,57,39,30.30,30.02,19,4,20,0.01
2013-5-25,83,69,58,69,60,47,95,74,53,30.12,29.95,19,3,19,0.27
2013-5-26,86,71,63,72,65,60,93,82,59,30.00,29.83,21,3,21,0.00
2013-5-27,82,69,59,66,62,58,97,82,56,29.91,29.59,33,3,33,1.20
2013-5-28,84,72,62,68,63,57,96,76,41,29.73,29.61,15,2,15,0.00
2013-5-29,75,69,63,70,64,61,94,85,78,29.72,29.53,24,4,27,0.97
2013-5-30,77,66,60,64,60,54,95,82,57,29.63,29.50,17,3,17,0.23
2013-5-31,80,69,55,55,52,47,89,58,33,29.72,29.61,22,3,22,0.00
2013-6-1,64,59,55,55,51,47,88,75,55,30.02,29.66,27,6,27,0.01
2013-6-2,74,60,52,49,46,43,85,64,35,30.12,30.00,16,3,16,0.00
2013-6-3,78,64,49,55,50,46,89,62,37,30.06,29.82,19,4,20,0.00
2013-6-4,75,66,59,64,60,55,91,79,67,29.99,29.87,17,2,17,0.05
2013-6-5,76,66,58,63,53,48,92,67,41,30.06,29.95,21,4,21,0.00
2013-6-6,72,64,56,57,52,48,82,64,45,30.00,29.95,18,4,18,0.00
2013-6-7,78,65,54,54,51,50,87,63,39,30.05,29.89,10,2,11,0.00
2013-6-8,71,62,57,64,57,50,96,83,67,29.90,29.66,17,2,17,1.23
2013-6-9,70,63,60,62,59,57,97,86,69,29.83,29.70,18,3,18,0.21
2013-6-10,84,69,58,68,61,56,95,78,51,29.91,29.77,13,2,13,0.00
2013-6-11,94,78,68,74,67,63,85,70,41,29.83,29.70,10,2,10,0.00
2013-6-12,88,78,64,72,65,53,79,65,47,30.02,29.67,28,6,28,0.00
2013-6-13,81,69,58,62,57,53,84,68,39,30.11,29.96,12,2,13,0.01
2013-6-14,92,74,64,73,65,59,96,75,53,30.03,29.77,17,4,26,1.47
2013-6-15,84,74,66,70,66,62,96,77,54,29.96,29.82,16,2,16,0.00
2013-6-16,90,77,67,70,64,57,96,68,36,29.99,29.94,12,2,12,0.00
2013-6-17,91,78,66,62,59,55,82,53,33,30.02,29.94,13,3,13,0.00
2013-6-18,90,74,64,65,58,52,91,61,31,30.09,29.97,12,1,12,0.25
2013-6-19,90,77,64,68,63,57,87,64,41,30.02,29.90,16,2,16,0.00
2013-6-20,93,82,70,74,70,65,85,67,51,29.97,29.81,21,4,22,0.00
2013-6-21,98,86,78,77,72,70,80,64,42,29.88,29.77,23,4,24,0.00
2013-6-22,94,83,72,74,68,61,76,61,45,30.02,29.78,22,5,24,0.00
2013-6-23,84,75,65,71,68,62,92,78,62,29.95,29.75,23,3,24,0.41
2013-6-24,85,77,64,74,70,62,93,80,63,30.01,29.72,24,3,28,0.46
2013-6-25,89,81,71,76,71,66,89,72,55,29.82,29.66,16,2,16,0.05
2013-6-26,94,83,74,74,67,60,92,63,35,29.90,29.66,20,3,20,0.00
2013-6-27,87,75,69,72,67,63,92,77,56,30.01,29.88,14,1,14,0.29
2013-6-28,87,78,71,67,60,54,83,56,35,29.99,29.89,26,6,26,0.00
2013-6-29,81,73,66,61,57,54,71,58,46,29.95,29.88,27,6,27,0.00
2013-6-30,81,70,61,58,55,49,85,60,37,30.11,29.95,17,4,17,0.00
2013-7-1,85,72,59,56,53,50,78,54,32,30.19,30.11,15,3,15,0.00
2013-7-2,86,71,61,61,56,53,81,61,35,30.18,30.05,10,1,10,0.00
2013-7-3,86,73,59,64,58,51,92,63,34,30.07,29.95,11,1,12,0.00
2013-7-4,90,76,62,63,58,54,79,56,33,30.00,29.89,17,2,17,0.00
2013-7-5,91,79,66,68,63,58,75,59,45,29.93,29.84,18,3,18,0.00
2013-7-6,92,80,70,70,66,62,75,63,45,29.89,29.81,16,3,19,0.00
2013-7-7,96,84,74,72,68,62,74,59,41,29.91,29.82,17,3,17,0.00
2013-7-8,94,84,78,75,71,67,80,66,50,29.98,29.90,11,2,11,0.00
2013-7-9,98,86,76,77,73,70,85,67,45,29.96,29.87,17,3,17,0.04
2013-7-10,88,79,70,71,66,62,85,65,46,30.10,29.96,17,4,17,0.00
2013-7-11,90,78,65,65,62,59,84,61,41,30.11,29.96,14,2,15,0.00
2013-7-12,92,80,69,72,66,59,74,62,51,30.02,29.91,18,5,19,0.00
2013-7-13,91,80,74,75,68,62,74,65,56,29.99,29.91,16,4,17,0.00
2013-7-14,90,80,70,67,63,59,75,58,40,30.16,29.98,16,3,17,0.00
2013-7-15,93,80,65,72,67,61,88,66,45,30.20,30.11,14,1,14,0.00
2013-7-16,94,82,70,71,68,64,91,64,45,30.27,30.17,12,1,12,0.00
2013-7-17,95,84,74,73,71,68,85,65,46,30.31,30.17,13,2,13,0.00
2013-7-18,95,84,74,72,70,67,83,62,42,30.18,29.94,20,3,20,0.00
2013-7-19,97,85,76,72,66,56,71,55,29,29.95,29.87,14,2,14,0.00
2013-7-20,93,81,68,66,62,57,78,54,34,30.01,29.85,10,2,15,0.00
2013-7-21,93,80,72,75,69,65,86,69,52,29.93,29.76,15,2,15,0.00
2013-7-22,97,88,78,75,71,64,71,59,47,29.86,29.74,15,4,15,0.00
2013-7-23,86,76,66,67,64,60,90,67,49,30.04,29.83,19,4,20,0.06
2013-7-24,88,74,61,64,61,57,87,64,42,30.09,29.99,12,2,15,0.00
2013-7-25,81,74,70,69,64,60,86,71,52,30.05,29.98,18,2,18,0.03
2013-7-26,78,71,63,67,59,52,94,69,45,30.11,29.97,25,5,25,0.00
2013-7-27,75,65,56,54,50,43,83,60,39,30.14,30.00,18,3,18,0.00
2013-7-28,82,67,51,52,49,47,89,57,31,30.08,30.01,13,1,13,0.00
2013-7-29,67,64,59,63,57,50,94,80,57,30.07,30.00,12,2,13,0.14
2013-7-30,75,70,64,67,65,63,96,86,74,30.12,30.02,11,2,11,0.00
2013-7-31,88,75,63,67,65,62,96,72,45,30.15,30.04,10,1,10,0.00
2013-8-1,88,75,64,70,65,61,95,74,44,30.10,29.86,18,2,19,0.32
2013-8-2,88,76,67,69,66,60,92,73,53,30.03,29.83,16,3,16,0.00
2013-8-3,81,72,65,61,59,57,79,63,48,30.19,30.02,13,3,13,0.00
2013-8-4,81,72,62,67,61,56,85,68,53,30.19,30.02,14,3,15,0.00
2013-8-5,90,77,69,75,71,65,94,82,61,30.04,29.84,13,2,13,0.00
2013-8-6,90,79,67,75,71,64,95,79,58,29.95,29.79,22,2,22,0.17
2013-8-7,87,78,70,74,65,57,88,66,42,30.01,29.82,15,4,16,0.00
2013-8-8,81,72,65,66,63,60,85,73,54,30.04,29.95,7,1,8,0.00
2013-8-9,82,73,63,69,63,58,96,74,48,30.15,30.02,14,2,14,0.00
2013-8-10,86,73,60,64,61,57,93,68,45,30.22,30.08,14,2,14,0.00
2013-8-11,88,77,66,70,66,60,84,69,52,30.12,29.98,16,2,18,0.00
2013-8-12,87,78,70,70,65,58,87,67,39,30.08,29.99,15,3,15,0.00
2013-8-13,83,73,63,61,58,54,85,61,41,30.18,30.07,12,2,12,0.00
2013-8-14,77,69,59,62,58,54,87,68,51,30.20,30.08,9,2,10,0.08
2013-8-15,67,63,59,62,59,58,96,89,79,30.11,30.04,15,3,15,1.23
2013-8-16,78,68,62,60,59,57,90,74,53,30.18,30.10,12,2,13,0.00
2013-8-17,82,70,60,61,58,56,94,68,45,30.20,30.12,13,1,13,0.00
2013-8-18,83,70,57,64,60,55,94,70,47,30.16,30.05,13,2,13,0.00
2013-8-19,88,76,65,71,66,61,86,72,54,30.08,29.94,18,2,18,0.00
2013-8-20,90,80,70,72,69,66,88,71,53,29.97,29.91,19,3,19,0.00
2013-8-21,94,82,71,74,70,66,86,69,49,30.00,29.94,17,3,17,0.00
2013-8-22,88,77,72,71,68,65,83,74,54,30.11,29.97,16,2,16,0.00
2013-8-23,92,80,71,74,70,67,89,71,48,30.09,29.98,15,2,15,0.00
2013-8-24,95,83,75,74,71,68,82,68,51,30.08,30.00,19,3,19,0.00
2013-8-25,98,84,74,76,72,69,86,68,46,30.13,30.04,18,3,18,0.00
2013-8-26,97,85,73,74,72,69,87,65,44,30.09,29.95,20,3,20,0.00
2013-8-27,98,85,77,73,70,67,73,61,43,29.97,29.89,17,4,17,0.00
2013-8-28,98,83,70,72,67,61,82,61,33,30.00,29.93,12,2,12,0.00
2013-8-29,100,85,73,76,72,66,89,68,43,30.01,29.90,14,2,14,0.00
2013-8-30,99,84,73,79,72,68,85,68,42,29.91,29.83,15,2,15,0.00
2013-8-31,98,82,73,75,72,68,90,72,41,29.90,29.78,9,2,9,0.00
2013-9-1,82,76,69,72,64,58,95,70,46,30.01,29.77,17,4,25,0.17
2013-9-2,82,70,60,62,56,44,92,66,30,30.11,30.00,14,2,14,0.00
2013-9-3,90,72,57,64,60,55,93,69,41,30.11,30.02,9,1,9,0.00
2013-9-4,89,76,69,66,63,60,76,64,44,30.16,30.03,9,1,9,0.00
2013-9-5,86,76,68,68,66,63,92,71,54,30.20,30.08,10,1,11,0.25
2013-9-6,95,80,68,74,67,62,81,65,43,30.10,29.91,16,2,17,0.00
2013-9-7,89,80,72,74,70,66,82,70,51,29.93,29.85,15,2,15,0.00
2013-9-8,97,82,72,77,72,69,92,74,47,29.92,29.79,10,2,10,0.00
2013-9-9,99,86,75,73,64,57,81,52,27,29.86,29.78,23,3,23,0.00
2013-9-10,97,79,69,76,66,61,95,65,37,30.07,29.86,17,2,19,0.95
2013-9-11,84,75,68,72,69,66,95,81,60,30.12,30.04,14,1,15,0.28
2013-9-12,80,72,64,69,57,48,92,61,35,30.23,30.11,18,4,18,0.00
2013-9-13,79,66,54,54,52,49,87,63,39,30.23,30.07,10,1,10,0.00
2013-9-14,79,66,54,57,53,48,86,63,42,30.08,29.87,14,2,15,0.00
2013-9-15,70,65,63,66,58,53,96,79,60,30.24,29.85,19,5,19,0.59
2013-9-16,70,62,56,56,54,52,89,75,61,30.33,30.19,17,3,18,0.00
2013-9-17,74,64,57,68,61,55,96,91,81,30.19,29.88,11,3,12,0.26
2013-9-18,92,79,67,72,68,65,93,72,48,29.90,29.69,22,3,23,0.00
2013-9-19,84,72,61,69,63,50,92,72,55,30.00,29.72,26,4,26,0.23
2013-9-20,72,61,51,53,48,44,83,64,39,30.09,29.96,20,3,20,0.00
2013-9-21,80,62,45,54,49,43,95,65,37,30.04,29.85,13,1,13,0.00
2013-9-22,83,68,54,58,53,49,88,61,32,29.90,29.80,19,3,19,0.00
2013-9-23,79,67,55,56,52,50,83,61,39,29.84,29.72,16,5,22,0.00
2013-9-24,73,66,61,60,57,54,88,73,61,29.91,29.71,15,3,15,0.00
2013-9-25,82,68,54,61,58,53,95,73,46,29.92,29.74,14,2,15,0.00
2013-9-26,89,74,61,62,60,58,89,65,39,29.82,29.74,24,6,25,0.00
2013-9-27,90,78,69,62,61,59,76,58,35,29.85,29.76,23,5,23,0.00
2013-9-28,74,63,52,64,52,43,94,70,41,30.06,29.67,19,4,19,0.51
2013-9-29,78,62,46,48,45,42,92,60,30,30.06,29.87,17,2,20,0.00
2013-9-30,84,66,54,54,51,46,82,60,35,29.90,29.70,19,3,19,0.00
2013-10-1,82,68,56,56,52,48,87,60,34,29.95,29.77,14,2,15,0.00
2013-10-2,87,72,59,67,60,48,90,67,44,29.96,29.81,17,2,17,0.00
2013-10-3,80,70,61,66,62,59,96,79,60,29.87,29.71,22,3,22,2.13
2013-10-4,83,68,52,73,61,40,96,81,54,29.89,29.62,23,4,23,1.11
2013-10-5,52,47,42,40,36,33,82,64,51,29.95,29.81,25,5,26,0.00
2013-10-6,50,46,41,46,42,37,92,87,65,30.00,29.77,19,4,19,0.11
2013-10-7,75,47,41,42,39,38,91,77,30,30.08,29.99,10,1,10,0.00